createdAt,value
2022-08-05T00:00:34.195Z,22.30
2022-08-05T00:03:15.646Z,22.40
2022-08-05T00:06:06.449Z,22.40
2022-08-05T00:08:35.450Z,22.30
2022-08-05T00:11:20.317Z,22.30
2022-08-05T00:13:52.935Z,22.30
2022-08-05T00:16:36.452Z,22.10
2022-08-05T00:19:08.492Z,21.90
2022-08-05T00:21:36.207Z,22.00
2022-08-05T00:24:10.391Z,22.10
2022-08-05T00:26:39.158Z,22.10
2022-08-05T00:29:14.167Z,21.90
2022-08-05T00:32:10.186Z,21.90
2022-08-05T00:34:54.967Z,22.10
2022-08-05T00:37:16.586Z,22.10
2022-08-05T00:39:57.391Z,22.10
2022-08-05T00:42:35.562Z,22.10
2022-08-05T00:45:08.560Z,22.00
2022-08-05T00:47:56.434Z,22.10
2022-08-05T00:50:25.323Z,21.90
2022-08-05T00:52:54.989Z,21.90
2022-08-05T00:55:42.103Z,22.00
2022-08-05T00:58:14.922Z,22.10
2022-08-05T01:00:45.940Z,22.00
2022-08-05T01:03:23.003Z,21.90
2022-08-05T01:05:54.481Z,22.00
2022-08-05T01:08:40.576Z,22.00
2022-08-05T01:11:22.580Z,22.10
2022-08-05T01:14:15.416Z,21.90
2022-08-05T01:16:54.295Z,21.80
2022-08-05T01:20:00.975Z,21.90
2022-08-05T01:22:32.091Z,21.90
2022-08-05T01:25:19.491Z,21.90
2022-08-05T01:28:14.541Z,21.90
2022-08-05T01:30:53.863Z,22.10
2022-08-05T01:33:35.579Z,22.00
2022-08-05T01:36:13.074Z,21.70
2022-08-05T01:38:48.566Z,21.50
2022-08-05T01:41:21.119Z,21.60
2022-08-05T01:43:51.637Z,21.70
2022-08-05T01:46:41.968Z,21.80
2022-08-05T01:49:22.965Z,21.70
2022-08-05T01:51:59.074Z,21.50
2022-08-05T01:54:46.294Z,21.70
2022-08-05T01:58:09.846Z,21.80
2022-08-05T02:00:12.395Z,21.80
2022-08-05T02:02:51.094Z,21.50
2022-08-05T02:05:25.424Z,21.50
2022-08-05T02:08:01.003Z,21.40
2022-08-05T02:10:35.321Z,21.40
2022-08-05T02:13:16.114Z,21.50
2022-08-05T02:16:01.839Z,21.40
2022-08-05T02:18:48.622Z,21.20
2022-08-05T02:21:19.875Z,21.40
2022-08-05T02:23:52.441Z,21.50
2022-08-05T02:26:26.520Z,21.70
2022-08-05T02:28:56.202Z,21.70
2022-08-05T02:31:34.570Z,21.80
2022-08-05T02:34:10.129Z,21.70
2022-08-05T02:36:42.769Z,21.50
2022-08-05T02:39:11.187Z,21.50
2022-08-05T02:41:57.491Z,21.60
2022-08-05T02:44:30.605Z,21.70
2022-08-05T02:47:00.898Z,21.70
2022-08-05T02:49:36.762Z,21.70
2022-08-05T02:52:29.589Z,21.70
2022-08-05T02:55:01.855Z,21.70
2022-08-05T02:58:10.176Z,21.70
2022-08-05T03:00:22.983Z,21.70
2022-08-05T03:02:54.027Z,21.70
2022-08-05T03:05:21.723Z,21.70
2022-08-05T03:08:11.281Z,21.70
2022-08-05T03:10:39.047Z,21.70
2022-08-05T03:13:17.107Z,21.70
2022-08-05T03:15:46.304Z,21.70
2022-08-05T03:18:14.168Z,21.10
2022-08-05T03:20:48.962Z,21.00
2022-08-05T03:23:18.153Z,20.90
2022-08-05T03:26:04.951Z,20.80
2022-08-05T03:28:38.976Z,20.70
2022-08-05T03:31:07.578Z,20.70
2022-08-05T03:33:51.003Z,20.90
2022-08-05T03:36:30.126Z,20.80
2022-08-05T03:38:58.496Z,20.80
2022-08-05T03:41:26.544Z,21.00
2022-08-05T03:44:10.998Z,20.90
2022-08-05T03:46:39.397Z,20.90
2022-08-05T03:49:06.935Z,21.00
2022-08-05T03:52:37.774Z,21.10
2022-08-05T03:55:34.153Z,21.10
2022-08-05T03:57:46.649Z,21.10
2022-08-05T04:00:16.445Z,21.20
2022-08-05T04:02:57.992Z,21.30
2022-08-05T04:05:33.704Z,21.10
2022-08-05T04:08:30.106Z,21.10
2022-08-05T04:10:57.039Z,21.10
2022-08-05T04:13:25.952Z,21.30
2022-08-05T04:16:14.813Z,21.40
2022-08-05T04:18:45.066Z,21.40
2022-08-05T04:21:45.756Z,21.10
2022-08-05T04:24:08.849Z,21.10
2022-08-05T04:26:36.644Z,20.90
2022-08-05T04:29:07.486Z,20.80
2022-08-05T04:31:38.601Z,21.00
2022-08-05T04:34:18.329Z,21.10
2022-08-05T04:36:49.651Z,21.20
2022-08-05T04:39:21.730Z,21.40
2022-08-05T04:41:51.176Z,21.50
2022-08-05T04:44:21.581Z,21.40
2022-08-05T04:46:59.622Z,21.50
2022-08-05T04:49:39.169Z,21.50
2022-08-05T04:52:18.570Z,21.50
2022-08-05T04:54:46.299Z,21.70
2022-08-05T04:57:13.909Z,21.70
2022-08-05T04:59:42.498Z,21.50
2022-08-05T05:02:37.470Z,21.60
2022-08-05T05:05:16.763Z,21.70
2022-08-05T05:08:01.674Z,21.90
2022-08-05T05:10:33.317Z,21.70
2022-08-05T05:13:03.950Z,21.60
2022-08-05T05:16:00.479Z,21.70
2022-08-05T05:18:31.195Z,21.90
2022-08-05T05:21:03.243Z,21.90
2022-08-05T05:24:02.098Z,21.90
2022-08-05T05:26:28.737Z,22.00
2022-08-05T05:29:00.455Z,22.00
2022-08-05T05:31:35.802Z,22.10
2022-08-05T05:33:59.193Z,22.20
2022-08-05T05:36:28.640Z,22.30
2022-08-05T05:38:58.053Z,22.30
2022-08-05T05:41:26.634Z,22.20
2022-08-05T05:44:35.938Z,22.20
2022-08-05T05:46:56.504Z,22.30
2022-08-05T05:49:26.601Z,22.50
2022-08-05T05:51:57.195Z,22.70
2022-08-05T05:54:50.788Z,22.70
2022-08-05T05:57:13.750Z,22.60
2022-08-05T05:59:47.363Z,22.70
2022-08-05T06:02:16.540Z,22.80
2022-08-05T06:04:49.229Z,23.00
2022-08-05T06:07:22.425Z,23.10
2022-08-05T06:10:01.426Z,23.10
2022-08-05T06:12:35.874Z,23.20
2022-08-05T06:15:13.636Z,23.40
2022-08-05T06:17:52.598Z,23.50
2022-08-05T06:20:21.650Z,23.70
2022-08-05T06:22:49.606Z,23.80
2022-08-05T06:25:59.388Z,24.00
2022-08-05T06:28:11.203Z,24.20
2022-08-05T06:30:47.022Z,24.30
2022-08-05T06:33:19.405Z,24.40
2022-08-05T06:36:06.823Z,24.60
2022-08-05T06:38:37.144Z,24.70
2022-08-05T06:41:07.944Z,24.80
2022-08-05T06:43:59.115Z,24.80
2022-08-05T06:46:29.737Z,25.00
2022-08-05T06:49:00.758Z,24.90
2022-08-05T06:51:31.001Z,24.90
2022-08-05T06:56:54.858Z,25.00
2022-08-05T06:59:38.520Z,24.50
2022-08-05T07:02:10.006Z,24.50
2022-08-05T07:04:37.360Z,24.60
2022-08-05T07:07:07.880Z,24.50
2022-08-05T07:09:37.346Z,24.70
2022-08-05T07:12:08.988Z,25.00
2022-08-05T07:14:57.275Z,25.00
2022-08-05T07:18:00.821Z,25.20
2022-08-05T07:23:00.946Z,25.50
2022-08-05T07:26:04.360Z,25.40
2022-08-05T07:28:33.752Z,25.60
2022-08-05T07:31:01.359Z,25.50
2022-08-05T07:33:37.209Z,25.50
2022-08-05T07:36:19.872Z,25.50
2022-08-05T07:38:49.405Z,25.70
2022-08-05T07:42:07.698Z,25.90
2022-08-05T07:44:18.718Z,26.00
2022-08-05T07:46:55.815Z,26.00
2022-08-05T07:49:23.307Z,26.10
2022-08-05T07:51:54.726Z,26.10
2022-08-05T07:54:33.584Z,26.30
2022-08-05T07:57:41.929Z,26.40
2022-08-05T08:00:11.646Z,26.60
2022-08-05T08:03:13.885Z,26.60
2022-08-05T08:05:29.599Z,26.80
2022-08-05T08:08:19.883Z,26.90
2022-08-05T08:10:48.920Z,27.00
2022-08-05T08:13:21.854Z,27.10
2022-08-05T08:16:50.477Z,27.20
2022-08-05T08:18:50.188Z,27.20
2022-08-05T08:21:18.312Z,27.30
2022-08-05T08:24:03.356Z,27.30
2022-08-05T08:26:46.803Z,27.20
2022-08-05T08:30:03.620Z,27.40
2022-08-05T08:32:07.392Z,27.70
2022-08-05T08:34:38.761Z,28.00
2022-08-05T08:37:06.266Z,28.00
2022-08-05T08:39:37.348Z,28.10
2022-08-05T08:42:10.835Z,28.00
2022-08-05T08:45:18.096Z,28.00
2022-08-05T08:48:10.526Z,28.10
2022-08-05T08:51:03.918Z,28.30
2022-08-05T08:53:31.234Z,28.40
2022-08-05T08:56:03.405Z,28.40
2022-08-05T08:58:37.593Z,28.50
2022-08-05T09:01:15.762Z,28.60
2022-08-05T09:03:54.402Z,28.70
2022-08-05T09:06:30.071Z,28.90
2022-08-05T09:09:01.953Z,29.00
2022-08-05T09:11:53.064Z,29.10
2022-08-05T09:14:56.691Z,29.20
2022-08-05T09:17:16.070Z,29.40
2022-08-05T09:20:02.821Z,29.50
2022-08-05T09:23:18.625Z,29.50
2022-08-05T09:26:02.122Z,29.70
2022-08-05T09:28:35.487Z,30.00
2022-08-05T09:31:22.339Z,29.90
2022-08-05T09:34:01.449Z,30.00
2022-08-05T09:36:59.694Z,30.10
2022-08-05T09:39:44.965Z,30.20
2022-08-05T09:42:23.550Z,30.20
2022-08-05T09:45:17.281Z,30.30
2022-08-05T09:47:55.089Z,30.60
2022-08-05T09:50:44.252Z,30.60
2022-08-05T09:53:22.847Z,30.80
2022-08-05T09:56:03.713Z,31.00
2022-08-05T09:58:42.044Z,31.00
2022-08-05T10:01:15.714Z,31.10
2022-08-05T10:04:10.439Z,31.40
2022-08-05T10:07:01.417Z,31.50
2022-08-05T10:09:30.263Z,31.70
2022-08-05T10:12:30.238Z,31.60
2022-08-05T10:15:41.950Z,31.10
2022-08-05T10:18:17.344Z,31.10
2022-08-05T10:20:50.351Z,30.90
2022-08-05T10:23:55.276Z,31.20
2022-08-05T10:26:15.138Z,31.40
2022-08-05T10:28:45.024Z,31.80
2022-08-05T10:33:01.486Z,31.80
2022-08-05T10:34:04.061Z,32.00
2022-08-05T10:36:38.006Z,32.40
2022-08-05T10:39:59.259Z,32.50
2022-08-05T10:42:34.105Z,32.40
2022-08-05T10:45:21.206Z,32.20
2022-08-05T10:48:29.779Z,32.20
2022-08-05T10:51:22.295Z,32.20
2022-08-05T10:53:56.297Z,32.30
2022-08-05T10:56:36.754Z,32.00
2022-08-05T11:00:02.127Z,32.00
2022-08-05T11:02:14.658Z,32.40
2022-08-05T11:05:10.966Z,32.60
2022-08-05T11:08:37.349Z,33.10
2022-08-05T11:11:16.690Z,33.00
2022-08-05T11:13:54.790Z,32.70
2022-08-05T11:16:33.729Z,32.80
2022-08-05T11:20:17.151Z,33.10
2022-08-05T11:22:42.397Z,33.20
2022-08-05T11:26:06.253Z,33.10
2022-08-05T11:28:35.879Z,32.80
2022-08-05T11:31:06.594Z,32.60
2022-08-05T11:33:46.072Z,32.60
2022-08-05T11:36:34.328Z,32.60
2022-08-05T11:39:09.370Z,32.60
2022-08-05T11:42:00.939Z,32.60
2022-08-05T11:44:52.865Z,32.60
2022-08-05T11:47:48.795Z,32.80
2022-08-05T11:50:14.466Z,32.80
2022-08-05T11:52:43.967Z,32.70
2022-08-05T11:55:15.658Z,32.80
2022-08-05T11:58:09.111Z,32.70
2022-08-05T12:00:37.796Z,32.50
2022-08-05T12:03:28.655Z,32.20
2022-08-05T12:06:05.984Z,32.20
2022-08-05T12:08:49.809Z,32.30
2022-08-05T12:11:20.740Z,32.30
2022-08-05T12:14:04.328Z,32.40
2022-08-05T12:16:35.275Z,32.50
2022-08-05T12:20:25.468Z,32.40
2022-08-05T12:22:09.560Z,32.20
2022-08-05T12:24:43.738Z,32.00
2022-08-05T12:27:33.121Z,31.90
2022-08-05T12:30:15.584Z,32.00
2022-08-05T12:32:53.950Z,32.00
2022-08-05T12:35:39.739Z,32.10
2022-08-05T12:38:08.366Z,32.00
2022-08-05T12:40:39.229Z,32.20
2022-08-05T12:43:21.057Z,32.10
2022-08-05T12:45:56.382Z,32.20
2022-08-05T12:48:32.245Z,32.20
2022-08-05T12:52:10.625Z,32.20
2022-08-05T12:54:14.845Z,32.20
2022-08-05T12:56:51.014Z,32.40
2022-08-05T12:59:27.299Z,32.40
2022-08-05T13:02:08.393Z,32.40
2022-08-05T13:04:52.324Z,32.20
2022-08-05T13:07:57.323Z,32.20
2022-08-05T13:10:19.989Z,32.20
2022-08-05T13:12:51.085Z,32.50
2022-08-05T13:15:41.679Z,32.30
2022-08-05T13:18:20.138Z,32.50
2022-08-05T13:20:49.810Z,32.50
2022-08-05T13:23:22.757Z,32.50
2022-08-05T13:25:58.929Z,32.60
2022-08-05T13:28:29.086Z,32.50
2022-08-05T13:30:59.708Z,32.60
2022-08-05T13:34:23.332Z,33.00
2022-08-05T13:36:18.739Z,32.80
2022-08-05T13:38:46.240Z,33.00
2022-08-05T13:41:19.655Z,32.80
2022-08-05T13:43:54.538Z,33.00
2022-08-05T13:46:44.069Z,33.00
2022-08-05T13:49:12.869Z,32.90
2022-08-05T13:51:46.362Z,33.00
2022-08-05T13:54:16.520Z,33.00
2022-08-05T13:56:51.505Z,32.80
2022-08-05T13:59:30.801Z,32.80
2022-08-05T14:02:00.628Z,33.00
2022-08-05T14:04:49.859Z,33.20
2022-08-05T14:07:59.535Z,33.10
2022-08-05T14:10:28.467Z,33.10
2022-08-05T14:13:00.731Z,33.10
2022-08-05T14:16:07.404Z,33.30
2022-08-05T14:18:23.999Z,33.10
2022-08-05T14:20:54.868Z,33.10
2022-08-05T14:23:25.771Z,32.80
2022-08-05T14:25:58.785Z,32.60
2022-08-05T14:28:28.920Z,32.30
2022-08-05T14:31:01.391Z,32.20
2022-08-05T14:33:56.310Z,32.00
2022-08-05T14:36:21.241Z,32.00
2022-08-05T14:38:49.485Z,31.90
2022-08-05T14:41:17.769Z,31.90
2022-08-05T14:44:02.503Z,31.90
2022-08-05T14:46:34.990Z,31.90
2022-08-05T14:49:07.134Z,31.80
2022-08-05T14:51:38.535Z,31.80
2022-08-05T14:54:26.929Z,31.70
2022-08-05T14:57:00.312Z,31.70
2022-08-05T14:59:35.679Z,31.60
2022-08-05T15:02:14.977Z,31.50
2022-08-05T15:04:44.963Z,31.50
2022-08-05T15:08:10.633Z,31.50
2022-08-05T15:10:05.253Z,31.50
2022-08-05T15:12:59.800Z,31.50
2022-08-05T15:15:55.283Z,31.50
2022-08-05T15:18:15.399Z,31.50
2022-08-05T15:20:44.695Z,31.50
2022-08-05T15:23:13.782Z,31.40
2022-08-05T15:25:52.812Z,31.40
2022-08-05T15:28:27.767Z,31.40
2022-08-05T15:30:56.118Z,31.40
2022-08-05T15:34:05.540Z,31.50
2022-08-05T15:36:17.329Z,31.60
2022-08-05T15:41:00.836Z,31.70
2022-08-05T15:41:56.426Z,31.90
2022-08-05T15:44:28.029Z,31.80
2022-08-05T15:46:59.745Z,31.70
2022-08-05T15:49:52.021Z,31.80
2022-08-05T15:52:28.977Z,31.90
2022-08-05T15:54:57.354Z,32.00
2022-08-05T15:57:25.048Z,32.00
2022-08-05T16:00:02.456Z,32.20
2022-08-05T16:02:33.145Z,32.10
2022-08-05T16:05:01.167Z,32.20
2022-08-05T16:07:29.633Z,32.30
2022-08-05T16:09:57.313Z,32.40
2022-08-05T16:12:24.853Z,32.40
2022-08-05T16:14:52.613Z,32.40
2022-08-05T16:17:20.146Z,32.30
2022-08-05T16:20:03.584Z,32.20
2022-08-05T16:22:35.065Z,32.20
2022-08-05T16:25:09.405Z,32.20
2022-08-05T16:28:00.362Z,32.30
2022-08-05T16:30:28.897Z,32.20
2022-08-05T16:32:58.153Z,32.20
2022-08-05T16:35:28.570Z,32.30
2022-08-05T16:38:02.533Z,32.30
2022-08-05T16:40:52.115Z,32.20
2022-08-05T16:43:25.046Z,32.10
2022-08-05T16:46:07.590Z,32.00
2022-08-05T16:48:39.103Z,32.10
2022-08-05T16:51:10.634Z,32.20
2022-08-05T16:54:05.897Z,32.30
2022-08-05T16:56:30.516Z,32.20
2022-08-05T16:58:58.855Z,32.00
2022-08-05T17:01:52.504Z,31.80
2022-08-05T17:04:16.268Z,31.70
2022-08-05T17:06:48.468Z,31.60
2022-08-05T17:09:21.534Z,31.60
2022-08-05T17:11:56.005Z,31.60
2022-08-05T17:14:37.036Z,31.70
2022-08-05T17:17:14.575Z,31.70
2022-08-05T17:19:45.885Z,31.60
2022-08-05T17:22:24.477Z,31.70
2022-08-05T17:24:57.755Z,31.70
2022-08-05T17:27:33.984Z,31.60
2022-08-05T17:30:18.658Z,31.40
2022-08-05T17:32:46.653Z,31.10
2022-08-05T17:35:15.504Z,30.90
2022-08-05T17:37:45.446Z,30.80
2022-08-05T17:40:17.535Z,30.70
2022-08-05T17:42:52.008Z,30.60
2022-08-05T17:45:29.584Z,30.60
2022-08-05T17:48:08.991Z,30.60
2022-08-05T17:50:37.216Z,30.50
2022-08-05T17:53:08.475Z,30.40
2022-08-05T17:55:39.890Z,30.30
2022-08-05T17:58:11.034Z,30.30
2022-08-05T18:00:47.532Z,30.30
2022-08-05T18:03:56.464Z,30.20
2022-08-05T18:06:12.341Z,30.00
2022-08-05T18:08:45.844Z,30.00
2022-08-05T18:11:24.294Z,29.90
2022-08-05T18:13:57.251Z,29.70
2022-08-05T18:16:27.175Z,29.50
2022-08-05T18:18:54.473Z,29.50
2022-08-05T18:21:25.992Z,29.40
2022-08-05T18:23:54.470Z,29.30
2022-08-05T18:26:27.531Z,29.30
2022-08-05T18:28:57.701Z,29.10
2022-08-05T18:31:25.190Z,29.10
2022-08-05T18:33:53.908Z,29.10
2022-08-05T18:36:28.013Z,29.10
2022-08-05T18:38:56.113Z,29.10
2022-08-05T18:41:57.469Z,29.20
2022-08-05T18:44:12.757Z,29.20
2022-08-05T18:46:41.296Z,29.10
2022-08-05T18:49:30.357Z,29.00
2022-08-05T18:52:16.666Z,28.90
2022-08-05T18:54:45.927Z,28.50
2022-08-05T18:57:15.066Z,28.40
2022-08-05T19:00:02.478Z,28.30
2022-08-05T19:02:31.267Z,28.10
2022-08-05T19:05:02.932Z,28.00
2022-08-05T19:07:50.386Z,28.00
2022-08-05T19:10:28.459Z,28.10
2022-08-05T19:12:57.395Z,28.20
2022-08-05T19:15:57.789Z,28.30
2022-08-05T19:18:20.731Z,28.40
2022-08-05T19:20:52.419Z,28.30
2022-08-05T19:24:04.519Z,28.20
2022-08-05T19:26:09.505Z,28.10
2022-08-05T19:28:43.149Z,28.10
2022-08-05T19:31:13.247Z,28.00
2022-08-05T19:33:48.387Z,27.90
2022-08-05T19:36:26.955Z,27.90
2022-08-05T19:39:01.028Z,27.90
2022-08-05T19:42:05.507Z,28.00
2022-08-05T19:44:19.325Z,28.00
2022-08-05T19:46:50.369Z,27.90
2022-08-05T19:49:18.550Z,27.90
2022-08-05T19:52:05.732Z,27.80
2022-08-05T19:54:36.894Z,27.40
2022-08-05T19:57:09.262Z,27.00
2022-08-05T19:59:54.643Z,27.00
2022-08-05T20:02:31.467Z,27.20
2022-08-05T20:04:59.886Z,27.40
2022-08-05T20:07:47.008Z,27.50
2022-08-05T20:10:16.765Z,27.50
2022-08-05T20:12:46.217Z,27.40
2022-08-05T20:15:48.109Z,27.20
2022-08-05T20:18:10.491Z,26.90
2022-08-05T20:20:56.608Z,26.90
2022-08-05T20:23:39.620Z,26.80
2022-08-05T20:26:16.213Z,26.80
2022-08-05T20:28:49.079Z,26.90
2022-08-05T20:31:21.759Z,27.00
2022-08-05T20:33:56.098Z,27.10
2022-08-05T20:36:24.551Z,27.20
2022-08-05T20:38:57.768Z,27.10
2022-08-05T20:41:43.932Z,26.70
2022-08-05T20:44:28.937Z,26.40
2022-08-05T20:47:00.779Z,26.20
2022-08-05T20:49:28.316Z,26.30
2022-08-05T20:51:59.075Z,26.40
2022-08-05T20:54:43.037Z,26.60
2022-08-05T20:57:29.138Z,26.70
2022-08-05T21:00:20.738Z,26.60
2022-08-05T21:02:57.840Z,26.60
2022-08-05T21:05:25.485Z,26.70
2022-08-05T21:08:07.497Z,26.60
2022-08-05T21:10:36.370Z,26.60
2022-08-05T21:13:10.263Z,26.60
2022-08-05T21:15:44.393Z,26.60
2022-08-05T21:18:18.870Z,26.10
2022-08-05T21:20:48.212Z,26.10
2022-08-05T21:23:16.158Z,26.00
2022-08-05T21:25:44.940Z,25.70
2022-08-05T21:28:12.579Z,25.80
2022-08-05T21:30:45.904Z,25.90
2022-08-05T21:33:22.540Z,26.10
2022-08-05T21:35:55.878Z,26.10
2022-08-05T21:38:27.800Z,26.20
2022-08-05T21:40:55.263Z,26.20
2022-08-05T21:43:24.489Z,26.20
2022-08-05T21:45:57.836Z,26.20
2022-08-05T21:48:28.532Z,25.80
2022-08-05T21:50:56.353Z,25.70
2022-08-05T21:53:27.646Z,25.40
2022-08-05T21:56:16.405Z,25.30
2022-08-05T21:58:57.112Z,25.30
2022-08-05T22:01:26.353Z,25.40
2022-08-05T22:03:54.206Z,25.70
2022-08-05T22:06:35.459Z,25.80
2022-08-05T22:09:14.798Z,26.00
2022-08-05T22:11:46.881Z,26.00
2022-08-05T22:14:32.931Z,26.00
2022-08-05T22:17:03.901Z,26.00
2022-08-05T22:20:00.079Z,25.80
2022-08-05T22:22:28.137Z,25.80
2022-08-05T22:25:21.608Z,25.90
2022-08-05T22:28:09.914Z,25.90
2022-08-05T22:30:56.539Z,25.80
2022-08-05T22:33:58.194Z,25.40
2022-08-05T22:36:16.492Z,25.30
2022-08-05T22:38:47.999Z,25.40
2022-08-05T22:41:26.280Z,25.40
2022-08-05T22:44:06.588Z,25.30
2022-08-05T22:46:33.941Z,25.10
2022-08-05T22:49:23.429Z,25.20
2022-08-05T22:52:04.345Z,25.30
2022-08-05T22:54:35.601Z,25.40
2022-08-05T22:57:06.135Z,25.20
2022-08-05T22:59:44.176Z,25.30
2022-08-05T23:02:28.886Z,25.20
2022-08-05T23:05:01.946Z,25.20
2022-08-05T23:07:33.749Z,24.80
2022-08-05T23:10:13.270Z,24.80
2022-08-05T23:12:41.020Z,24.80
2022-08-05T23:15:12.360Z,24.80
2022-08-05T23:18:00.823Z,24.80
2022-08-05T23:20:27.194Z,24.90
2022-08-05T23:22:56.267Z,24.90
2022-08-05T23:25:51.779Z,24.80
2022-08-05T23:28:12.730Z,24.80
2022-08-05T23:30:43.505Z,24.90
2022-08-05T23:33:22.127Z,25.00
2022-08-05T23:35:55.953Z,25.00
2022-08-05T23:38:26.668Z,25.00
2022-08-05T23:40:54.727Z,25.00
2022-08-05T23:43:25.285Z,24.90
2022-08-05T23:46:21.181Z,24.70
2022-08-05T23:48:59.894Z,24.60
2022-08-05T23:52:12.946Z,24.50
2022-08-05T23:54:44.370Z,24.60
2022-08-05T23:57:12.115Z,24.60
